Egmondgracht — PDWG — position and weather

sailwx.info

Track history (hours):
 
Tides and Currents Weather Stations Pressure Air Temp Water Temp Dewpoint Dewpoint Depression Visibility Wind Speed Wind Dir Waves Ship Positions

Egmondgracht

Last reported at 2016-Dec-08 19:33 UTC. Time now 2016-Dec-10 12:47 UTC.
Position N 36°32' W 023°38'.

Length 136 m; beam 19 m; draft 9 m.

Type: Cargo ship. MMSI: 245716000.

Date/timePositionNaut miles runAvg speedWind from/ knotsBaromVisibWave heightAir tempDewpointWater temp
2016-Dec-08 19:33N 36°32' W 023°38'1313.5
2016-Dec-08 18:33N 36°33' W 023°55'1413.4
2016-Dec-08 17:33N 36°33' W 024°12'1313.3
2016-Dec-08 16:33N 36°34' W 024°28'1313.1
2016-Dec-08 15:33N 36°34' W 024°45'1313.2
2016-Dec-08 14:33N 36°35' W 025°01'1313.0
2016-Dec-08 13:33N 36°39' W 025°17'1313.3
2016-Dec-08 12:34N 36°43' W 025°32'1313.3
2016-Dec-08 11:33N 36°46' W 025°48'1413.5
2016-Dec-08 10:33N 36°50' W 026°04'1413.6
2016-Dec-08 09:33N 36°54' W 026°21'1413.8
2016-Dec-08 08:33N 36°58' W 026°37'1413.7
2016-Dec-08 07:33N 37°02' W 026°54'4113.6
2016-Dec-08 04:33N 37°14' W 027°43'1312.9
2016-Dec-08 03:33N 37°18' W 027°58'1312.8
2016-Dec-08 02:33N 37°21' W 028°13'1211.9
2016-Dec-08 01:33N 37°25' W 028°28'1211.8
2016-Dec-08 00:33N 37°28' W 028°42'1111.6
2016-Dec-07 23:34N 37°30' W 028°56'1111.4
2016-Dec-07 22:33N 37°32' W 029°11'1111.4
2016-Dec-07 21:33N 37°33' W 029°25'1111.2
2016-Dec-07 20:33N 37°34' W 029°39'8 7.8
2016-Dec-07 19:32N 37°38' W 029°47'8 7.5
2016-Dec-07 18:32N 37°42' W 029°55'11 9.0
2016-Dec-07 17:20N 37°48' W 030°07'8 9.9
2016-Dec-07 16:33N 37°51' W 030°16'1110.9
2016-Dec-07 15:34N 37°54' W 030°29'  
Track history (hours):
 
Tides and Currents Weather Stations Pressure Air Temp Water Temp Dewpoint Dewpoint Depression Visibility Wind Speed Wind Dir Waves Ship Positions

Egmondgracht

Last reported at 2016-Dec-08 19:33 UTC. Time now 2016-Dec-10 12:47 UTC.
Position N 36°32' W 023°38'.

Length 136 m; beam 19 m; draft 9 m.

Type: Cargo ship. MMSI: 245716000.

Date/timePositionNaut miles runAvg speedWind from/ knotsBaromVisibWave heightAir tempDewpointWater temp
2016-Dec-08 19:33N 36°32' W 023°38'1313.5
2016-Dec-08 18:33N 36°33' W 023°55'1413.4
2016-Dec-08 17:33N 36°33' W 024°12'1313.3
2016-Dec-08 16:33N 36°34' W 024°28'1313.1
2016-Dec-08 15:33N 36°34' W 024°45'1313.2
2016-Dec-08 14:33N 36°35' W 025°01'1313.0
2016-Dec-08 13:33N 36°39' W 025°17'1313.3
2016-Dec-08 12:34N 36°43' W 025°32'1313.3
2016-Dec-08 11:33N 36°46' W 025°48'1413.5
2016-Dec-08 10:33N 36°50' W 026°04'1413.6
2016-Dec-08 09:33N 36°54' W 026°21'1413.8
2016-Dec-08 08:33N 36°58' W 026°37'1413.7
2016-Dec-08 07:33N 37°02' W 026°54'4113.6
2016-Dec-08 04:33N 37°14' W 027°43'1312.9
2016-Dec-08 03:33N 37°18' W 027°58'1312.8
2016-Dec-08 02:33N 37°21' W 028°13'1211.9
2016-Dec-08 01:33N 37°25' W 028°28'1211.8
2016-Dec-08 00:33N 37°28' W 028°42'1111.6
2016-Dec-07 23:34N 37°30' W 028°56'1111.4
2016-Dec-07 22:33N 37°32' W 029°11'1111.4
2016-Dec-07 21:33N 37°33' W 029°25'1111.2
2016-Dec-07 20:33N 37°34' W 029°39'8 7.8
2016-Dec-07 19:32N 37°38' W 029°47'8 7.5
2016-Dec-07 18:32N 37°42' W 029°55'11 9.0
2016-Dec-07 17:20N 37°48' W 030°07'8 9.9
2016-Dec-07 16:33N 37°51' W 030°16'1110.9
2016-Dec-07 15:34N 37°54' W 030°29'  

Dump ship's entire track history